Pagina principale
METAR-TAF:

METAR-TAF

Aeroporti :

Pisa, Italia

Aeroporto di Pisa-San Giusto

latitudine: 43-41N, longitudine: 010-23E, altezza: 2 m

Osservazione

Il bollettino è stato emesso 31 minuti fa, alle 11:45 UTC
Vento 2 kt da est
Temperature 12°C
Umidità 67%
Pressione 1014 hPa
Visibilità 10 km o più
Poco nuvoloso ad un'altezza di 3000 ft

METAR: LIRP 191145Z 09002KT 9999 FEW030 12/06 Q1014 NOSIG

Ora: 13:16 (12:16 UTC)

Previsione

Il bollettino è stato emesso 1 ora e 16 minuti fa, alle 11:00 UTC
Previsione valida dal 19 alle 12 UTC al 20 alle 12 UTC
Vento 4 kt da direzioni variabili
Visibilità 10 km o più
Poco nuvoloso ad un'altezza di 3000 ft
Temporaneamente
dal 19 alle 18 UTC al 19 alle 24 UTC
Visibilità: 5000 m
foschia
Evoluzione graduale
dal 19 alle 22 UTC al 19 alle 24 UTC
Vento 10 kt da est/sud-est

TAF: LIRP 191100Z 1912/2012 VRB04KT 9999 FEW030 TEMPO 1918/1924 5000 BR NSC BECMG 1922/1924 11010KT

Osservazioni e previsioni meteorologiche di più di 4000 aeroporti (messaggi METAR e TAF).

Le stazioni disponibili sono rappresentate dai dischi gialli e rossi sulla carta.

Puntare il mouse per vedere il nome della stazione.

Clicca sopra per visualizzare le osservazioni e previsioni meteorologiche.

Per cambiare la mappa : fare clic sui pulsanti verdi con una croce nera per ingrandire, il pulsante verde con un trattino per diminuire, o sulla freccia verde per le mappe adiacenti.


METAR-TAF: